sensor_id;sensor_type;location;lat;lon;timestamp;P1;durP1;ratioP1;P2;durP2;ratioP2
8293;SDS011;4185;41.506;24.938;2023-05-29T00:02:04;10.87;;;7.67;;
8293;SDS011;4185;41.506;24.938;2023-05-29T00:04:31;11.40;;;8.33;;
8293;SDS011;4185;41.506;24.938;2023-05-29T00:07:00;10.83;;;7.57;;
8293;SDS011;4185;41.506;24.938;2023-05-29T00:09:26;11.60;;;8.10;;
8293;SDS011;4185;41.506;24.938;2023-05-29T00:11:54;11.63;;;7.97;;
8293;SDS011;4185;41.506;24.938;2023-05-29T00:14:21;11.53;;;7.23;;
8293;SDS011;4185;41.506;24.938;2023-05-29T00:16:49;11.43;;;7.10;;
8293;SDS011;4185;41.506;24.938;2023-05-29T00:19:16;11.37;;;8.03;;
8293;SDS011;4185;41.506;24.938;2023-05-29T00:21:44;9.23;;;6.97;;
8293;SDS011;4185;41.506;24.938;2023-05-29T00:24:14;10.07;;;6.77;;
8293;SDS011;4185;41.506;24.938;2023-05-29T00:26:42;12.87;;;7.53;;
8293;SDS011;4185;41.506;24.938;2023-05-29T00:29:08;8.93;;;6.53;;
8293;SDS011;4185;41.506;24.938;2023-05-29T00:31:35;10.33;;;7.03;;
8293;SDS011;4185;41.506;24.938;2023-05-29T00:34:02;9.67;;;6.87;;
8293;SDS011;4185;41.506;24.938;2023-05-29T00:36:29;9.00;;;6.80;;
8293;SDS011;4185;41.506;24.938;2023-05-29T00:38:56;9.27;;;6.70;;
8293;SDS011;4185;41.506;24.938;2023-05-29T00:41:24;9.20;;;7.00;;
8293;SDS011;4185;41.506;24.938;2023-05-29T00:43:51;10.33;;;6.87;;
8293;SDS011;4185;41.506;24.938;2023-05-29T00:46:18;9.43;;;7.10;;
8293;SDS011;4185;41.506;24.938;2023-05-29T00:48:45;10.67;;;7.03;;
8293;SDS011;4185;41.506;24.938;2023-05-29T00:51:14;8.90;;;7.10;;
8293;SDS011;4185;41.506;24.938;2023-05-29T00:53:42;9.33;;;6.53;;
8293;SDS011;4185;41.506;24.938;2023-05-29T00:56:11;8.67;;;6.27;;
8293;SDS011;4185;41.506;24.938;2023-05-29T00:58:40;10.13;;;7.20;;
8293;SDS011;4185;41.506;24.938;2023-05-29T01:01:07;9.63;;;6.70;;
8293;SDS011;4185;41.506;24.938;2023-05-29T01:03:35;10.57;;;7.07;;
8293;SDS011;4185;41.506;24.938;2023-05-29T01:06:02;10.87;;;6.43;;
8293;SDS011;4185;41.506;24.938;2023-05-29T01:08:29;9.10;;;6.43;;
8293;SDS011;4185;41.506;24.938;2023-05-29T01:10:58;11.73;;;6.63;;
8293;SDS011;4185;41.506;24.938;2023-05-29T01:13:30;10.10;;;6.87;;
8293;SDS011;4185;41.506;24.938;2023-05-29T01:16:03;11.00;;;7.13;;
8293;SDS011;4185;41.506;24.938;2023-05-29T01:18:39;9.17;;;6.90;;
8293;SDS011;4185;41.506;24.938;2023-05-29T01:21:14;10.97;;;6.40;;
8293;SDS011;4185;41.506;24.938;2023-05-29T01:23:53;8.97;;;6.67;;
8293;SDS011;4185;41.506;24.938;2023-05-29T01:26:43;13.07;;;6.53;;
8293;SDS011;4185;41.506;24.938;2023-05-29T01:29:22;11.50;;;7.63;;
8293;SDS011;4185;41.506;24.938;2023-05-29T01:31:52;11.50;;;7.40;;
8293;SDS011;4185;41.506;24.938;2023-05-29T01:34:19;9.57;;;6.77;;
8293;SDS011;4185;41.506;24.938;2023-05-29T01:36:46;11.17;;;7.97;;
8293;SDS011;4185;41.506;24.938;2023-05-29T01:39:13;11.23;;;7.33;;
8293;SDS011;4185;41.506;24.938;2023-05-29T01:41:40;10.50;;;7.10;;
8293;SDS011;4185;41.506;24.938;2023-05-29T01:44:10;12.20;;;7.40;;
8293;SDS011;4185;41.506;24.938;2023-05-29T01:46:38;11.53;;;7.27;;
8293;SDS011;4185;41.506;24.938;2023-05-29T01:49:06;11.83;;;7.60;;
8293;SDS011;4185;41.506;24.938;2023-05-29T01:51:34;9.77;;;7.30;;
8293;SDS011;4185;41.506;24.938;2023-05-29T01:54:02;11.40;;;7.50;;
8293;SDS011;4185;41.506;24.938;2023-05-29T01:56:29;12.33;;;7.23;;
8293;SDS011;4185;41.506;24.938;2023-05-29T01:58:58;10.87;;;7.80;;
8293;SDS011;4185;41.506;24.938;2023-05-29T02:01:27;9.90;;;7.23;;
8293;SDS011;4185;41.506;24.938;2023-05-29T02:03:54;13.73;;;8.10;;
8293;SDS011;4185;41.506;24.938;2023-05-29T02:06:21;12.03;;;7.67;;
8293;SDS011;4185;41.506;24.938;2023-05-29T02:08:48;9.10;;;6.67;;
8293;SDS011;4185;41.506;24.938;2023-05-29T02:11:15;12.43;;;7.23;;
8293;SDS011;4185;41.506;24.938;2023-05-29T02:13:42;12.30;;;7.67;;
8293;SDS011;4185;41.506;24.938;2023-05-29T02:16:10;10.03;;;7.10;;
8293;SDS011;4185;41.506;24.938;2023-05-29T02:18:36;15.63;;;7.83;;
8293;SDS011;4185;41.506;24.938;2023-05-29T02:21:04;11.73;;;8.13;;
8293;SDS011;4185;41.506;24.938;2023-05-29T02:23:30;11.60;;;7.47;;
8293;SDS011;4185;41.506;24.938;2023-05-29T02:25:57;12.00;;;8.07;;
8293;SDS011;4185;41.506;24.938;2023-05-29T02:28:24;11.33;;;7.83;;
8293;SDS011;4185;41.506;24.938;2023-05-29T02:30:51;13.73;;;7.97;;
8293;SDS011;4185;41.506;24.938;2023-05-29T02:33:19;12.50;;;7.73;;
8293;SDS011;4185;41.506;24.938;2023-05-29T02:35:46;10.27;;;7.57;;
8293;SDS011;4185;41.506;24.938;2023-05-29T02:38:13;14.40;;;7.67;;
8293;SDS011;4185;41.506;24.938;2023-05-29T02:40:40;9.97;;;7.07;;
8293;SDS011;4185;41.506;24.938;2023-05-29T02:43:07;9.90;;;7.03;;
8293;SDS011;4185;41.506;24.938;2023-05-29T02:45:35;9.90;;;6.90;;
8293;SDS011;4185;41.506;24.938;2023-05-29T02:48:02;8.37;;;6.43;;
8293;SDS011;4185;41.506;24.938;2023-05-29T02:50:30;8.83;;;6.40;;
8293;SDS011;4185;41.506;24.938;2023-05-29T02:52:57;11.00;;;6.67;;
8293;SDS011;4185;41.506;24.938;2023-05-29T02:55:24;9.43;;;6.20;;
8293;SDS011;4185;41.506;24.938;2023-05-29T02:57:50;9.03;;;6.73;;
8293;SDS011;4185;41.506;24.938;2023-05-29T03:00:20;10.00;;;7.20;;
8293;SDS011;4185;41.506;24.938;2023-05-29T03:02:47;13.23;;;6.67;;
8293;SDS011;4185;41.506;24.938;2023-05-29T03:05:13;9.60;;;7.17;;
8293;SDS011;4185;41.506;24.938;2023-05-29T03:07:43;10.10;;;6.73;;
8293;SDS011;4185;41.506;24.938;2023-05-29T03:10:09;10.63;;;6.67;;
8293;SDS011;4185;41.506;24.938;2023-05-29T03:12:37;11.53;;;6.30;;
8293;SDS011;4185;41.506;24.938;2023-05-29T03:15:06;7.53;;;5.97;;
8293;SDS011;4185;41.506;24.938;2023-05-29T03:17:33;9.03;;;5.90;;
8293;SDS011;4185;41.506;24.938;2023-05-29T03:20:01;7.83;;;5.50;;
8293;SDS011;4185;41.506;24.938;2023-05-29T03:22:31;10.37;;;6.63;;
8293;SDS011;4185;41.506;24.938;2023-05-29T03:24:59;8.33;;;6.33;;
8293;SDS011;4185;41.506;24.938;2023-05-29T03:27:26;8.00;;;5.93;;
8293;SDS011;4185;41.506;24.938;2023-05-29T03:29:52;7.27;;;5.77;;
8293;SDS011;4185;41.506;24.938;2023-05-29T03:32:19;8.17;;;6.20;;
8293;SDS011;4185;41.506;24.938;2023-05-29T03:34:46;8.77;;;6.37;;
8293;SDS011;4185;41.506;24.938;2023-05-29T03:37:13;7.53;;;5.90;;
8293;SDS011;4185;41.506;24.938;2023-05-29T03:39:40;9.80;;;6.53;;
8293;SDS011;4185;41.506;24.938;2023-05-29T03:42:08;8.33;;;6.33;;
8293;SDS011;4185;41.506;24.938;2023-05-29T03:44:35;8.73;;;6.03;;
8293;SDS011;4185;41.506;24.938;2023-05-29T03:47:02;7.37;;;5.70;;
8293;SDS011;4185;41.506;24.938;2023-05-29T03:49:29;9.27;;;6.20;;
8293;SDS011;4185;41.506;24.938;2023-05-29T03:51:55;9.20;;;5.70;;
8293;SDS011;4185;41.506;24.938;2023-05-29T03:54:22;7.40;;;5.60;;
8293;SDS011;4185;41.506;24.938;2023-05-29T03:56:49;11.10;;;5.57;;
8293;SDS011;4185;41.506;24.938;2023-05-29T03:59:17;7.60;;;5.70;;
8293;SDS011;4185;41.506;24.938;2023-05-29T04:01:44;8.90;;;6.00;;
8293;SDS011;4185;41.506;24.938;2023-05-29T04:04:11;8.33;;;5.90;;
8293;SDS011;4185;41.506;24.938;2023-05-29T04:06:38;8.90;;;6.17;;
8293;SDS011;4185;41.506;24.938;2023-05-29T04:09:05;8.10;;;6.13;;
8293;SDS011;4185;41.506;24.938;2023-05-29T04:11:33;7.87;;;5.60;;
8293;SDS011;4185;41.506;24.938;2023-05-29T04:14:00;7.87;;;6.43;;
8293;SDS011;4185;41.506;24.938;2023-05-29T04:16:28;9.90;;;6.30;;
8293;SDS011;4185;41.506;24.938;2023-05-29T04:18:55;9.83;;;6.60;;
8293;SDS011;4185;41.506;24.938;2023-05-29T04:21:22;9.40;;;6.27;;
8293;SDS011;4185;41.506;24.938;2023-05-29T04:23:49;10.03;;;6.97;;
8293;SDS011;4185;41.506;24.938;2023-05-29T04:26:16;11.20;;;6.50;;
8293;SDS011;4185;41.506;24.938;2023-05-29T04:28:43;8.33;;;5.70;;
8293;SDS011;4185;41.506;24.938;2023-05-29T04:31:09;11.83;;;6.17;;
8293;SDS011;4185;41.506;24.938;2023-05-29T04:33:40;10.80;;;6.03;;
8293;SDS011;4185;41.506;24.938;2023-05-29T04:36:10;10.23;;;6.30;;
8293;SDS011;4185;41.506;24.938;2023-05-29T04:38:37;8.97;;;6.53;;
8293;SDS011;4185;41.506;24.938;2023-05-29T04:41:04;9.00;;;6.23;;
8293;SDS011;4185;41.506;24.938;2023-05-29T04:43:33;10.37;;;6.53;;
8293;SDS011;4185;41.506;24.938;2023-05-29T04:46:02;10.20;;;6.47;;
8293;SDS011;4185;41.506;24.938;2023-05-29T04:48:28;8.70;;;7.00;;
8293;SDS011;4185;41.506;24.938;2023-05-29T04:50:57;9.83;;;7.27;;
8293;SDS011;4185;41.506;24.938;2023-05-29T04:53:24;7.07;;;5.73;;
8293;SDS011;4185;41.506;24.938;2023-05-29T04:55:51;7.50;;;5.90;;
8293;SDS011;4185;41.506;24.938;2023-05-29T04:58:18;8.27;;;5.87;;
8293;SDS011;4185;41.506;24.938;2023-05-29T05:00:44;9.80;;;6.17;;
8293;SDS011;4185;41.506;24.938;2023-05-29T05:03:12;10.60;;;6.40;;
8293;SDS011;4185;41.506;24.938;2023-05-29T05:05:41;9.73;;;6.27;;
8293;SDS011;4185;41.506;24.938;2023-05-29T05:08:10;8.57;;;6.53;;
8293;SDS011;4185;41.506;24.938;2023-05-29T05:10:37;9.50;;;6.90;;
8293;SDS011;4185;41.506;24.938;2023-05-29T05:13:04;10.63;;;6.30;;
8293;SDS011;4185;41.506;24.938;2023-05-29T05:15:32;9.87;;;6.10;;
8293;SDS011;4185;41.506;24.938;2023-05-29T05:17:59;7.53;;;5.80;;
8293;SDS011;4185;41.506;24.938;2023-05-29T05:20:25;7.63;;;5.97;;
8293;SDS011;4185;41.506;24.938;2023-05-29T05:22:52;9.67;;;5.80;;
8293;SDS011;4185;41.506;24.938;2023-05-29T05:25:22;6.73;;;5.40;;
8293;SDS011;4185;41.506;24.938;2023-05-29T05:27:49;8.23;;;5.40;;
8293;SDS011;4185;41.506;24.938;2023-05-29T05:30:16;10.03;;;6.60;;
8293;SDS011;4185;41.506;24.938;2023-05-29T05:32:42;8.73;;;5.50;;
8293;SDS011;4185;41.506;24.938;2023-05-29T05:35:09;8.73;;;5.73;;
8293;SDS011;4185;41.506;24.938;2023-05-29T05:37:36;7.77;;;5.40;;
8293;SDS011;4185;41.506;24.938;2023-05-29T05:40:04;8.07;;;5.60;;
8293;SDS011;4185;41.506;24.938;2023-05-29T05:42:33;9.00;;;6.20;;
8293;SDS011;4185;41.506;24.938;2023-05-29T05:45:00;7.27;;;5.57;;
8293;SDS011;4185;41.506;24.938;2023-05-29T05:47:28;7.77;;;5.73;;
8293;SDS011;4185;41.506;24.938;2023-05-29T05:49:54;8.37;;;5.03;;
8293;SDS011;4185;41.506;24.938;2023-05-29T05:52:21;7.07;;;5.20;;
8293;SDS011;4185;41.506;24.938;2023-05-29T05:54:49;7.63;;;5.30;;
8293;SDS011;4185;41.506;24.938;2023-05-29T05:57:16;9.07;;;5.40;;
8293;SDS011;4185;41.506;24.938;2023-05-29T05:59:44;6.67;;;5.23;;
8293;SDS011;4185;41.506;24.938;2023-05-29T06:02:11;7.07;;;4.53;;
8293;SDS011;4185;41.506;24.938;2023-05-29T06:04:38;7.00;;;4.50;;
8293;SDS011;4185;41.506;24.938;2023-05-29T06:07:05;8.90;;;5.10;;
8293;SDS011;4185;41.506;24.938;2023-05-29T06:09:32;6.80;;;4.70;;
8293;SDS011;4185;41.506;24.938;2023-05-29T06:11:59;6.97;;;4.80;;
8293;SDS011;4185;41.506;24.938;2023-05-29T06:14:26;6.23;;;3.77;;
8293;SDS011;4185;41.506;24.938;2023-05-29T06:16:55;6.80;;;5.40;;
8293;SDS011;4185;41.506;24.938;2023-05-29T06:19:21;5.37;;;4.57;;
8293;SDS011;4185;41.506;24.938;2023-05-29T06:21:48;4.57;;;3.73;;
8293;SDS011;4185;41.506;24.938;2023-05-29T06:24:15;4.57;;;3.50;;
8293;SDS011;4185;41.506;24.938;2023-05-29T06:26:42;4.80;;;3.67;;
8293;SDS011;4185;41.506;24.938;2023-05-29T06:29:09;7.40;;;3.90;;
8293;SDS011;4185;41.506;24.938;2023-05-29T06:31:35;5.13;;;3.90;;
8293;SDS011;4185;41.506;24.938;2023-05-29T06:34:03;7.33;;;4.57;;
8293;SDS011;4185;41.506;24.938;2023-05-29T06:36:30;6.07;;;3.57;;
8293;SDS011;4185;41.506;24.938;2023-05-29T06:38:58;4.87;;;3.90;;
8293;SDS011;4185;41.506;24.938;2023-05-29T06:41:25;6.47;;;4.30;;
8293;SDS011;4185;41.506;24.938;2023-05-29T06:43:52;5.90;;;4.33;;
8293;SDS011;4185;41.506;24.938;2023-05-29T06:46:18;5.73;;;4.43;;
8293;SDS011;4185;41.506;24.938;2023-05-29T06:48:45;4.97;;;4.27;;
8293;SDS011;4185;41.506;24.938;2023-05-29T06:51:13;6.07;;;4.30;;
8293;SDS011;4185;41.506;24.938;2023-05-29T06:53:42;6.93;;;4.80;;
8293;SDS011;4185;41.506;24.938;2023-05-29T06:56:09;5.93;;;4.23;;
8293;SDS011;4185;41.506;24.938;2023-05-29T06:58:36;5.77;;;4.43;;
8293;SDS011;4185;41.506;24.938;2023-05-29T07:01:03;7.37;;;4.23;;
8293;SDS011;4185;41.506;24.938;2023-05-29T07:03:30;7.83;;;4.43;;
8293;SDS011;4185;41.506;24.938;2023-05-29T07:05:57;6.43;;;3.77;;
8293;SDS011;4185;41.506;24.938;2023-05-29T07:08:25;8.30;;;4.27;;
8293;SDS011;4185;41.506;24.938;2023-05-29T07:10:53;6.27;;;4.20;;
8293;SDS011;4185;41.506;24.938;2023-05-29T07:13:20;7.07;;;4.53;;
8293;SDS011;4185;41.506;24.938;2023-05-29T07:15:47;6.13;;;4.53;;
8293;SDS011;4185;41.506;24.938;2023-05-29T07:18:14;6.53;;;4.50;;
8293;SDS011;4185;41.506;24.938;2023-05-29T07:20:41;7.10;;;4.37;;
8293;SDS011;4185;41.506;24.938;2023-05-29T07:23:08;4.90;;;4.23;;
8293;SDS011;4185;41.506;24.938;2023-05-29T07:25:36;5.30;;;4.17;;
8293;SDS011;4185;41.506;24.938;2023-05-29T07:28:03;5.60;;;4.57;;
8293;SDS011;4185;41.506;24.938;2023-05-29T07:30:30;7.93;;;5.07;;
8293;SDS011;4185;41.506;24.938;2023-05-29T07:32:57;5.33;;;4.40;;
8293;SDS011;4185;41.506;24.938;2023-05-29T07:35:25;6.50;;;4.27;;
8293;SDS011;4185;41.506;24.938;2023-05-29T07:37:51;5.47;;;4.70;;
8293;SDS011;4185;41.506;24.938;2023-05-29T07:40:19;5.00;;;4.50;;
8293;SDS011;4185;41.506;24.938;2023-05-29T07:42:47;5.17;;;4.60;;
8293;SDS011;4185;41.506;24.938;2023-05-29T07:45:14;5.17;;;4.67;;
8293;SDS011;4185;41.506;24.938;2023-05-29T07:47:41;6.43;;;4.87;;
8293;SDS011;4185;41.506;24.938;2023-05-29T07:50:08;7.20;;;4.80;;
8293;SDS011;4185;41.506;24.938;2023-05-29T07:52:35;5.50;;;4.77;;
8293;SDS011;4185;41.506;24.938;2023-05-29T07:55:02;6.73;;;4.87;;
8293;SDS011;4185;41.506;24.938;2023-05-29T07:57:29;5.50;;;4.87;;
8293;SDS011;4185;41.506;24.938;2023-05-29T07:59:58;5.83;;;4.53;;
8293;SDS011;4185;41.506;24.938;2023-05-29T08:02:25;5.60;;;4.80;;
8293;SDS011;4185;41.506;24.938;2023-05-29T08:04:51;6.07;;;5.47;;
8293;SDS011;4185;41.506;24.938;2023-05-29T08:07:18;7.23;;;5.37;;
8293;SDS011;4185;41.506;24.938;2023-05-29T08:09:45;6.73;;;5.50;;
8293;SDS011;4185;41.506;24.938;2023-05-29T08:12:12;6.40;;;5.30;;
8293;SDS011;4185;41.506;24.938;2023-05-29T08:14:39;6.47;;;5.13;;
8293;SDS011;4185;41.506;24.938;2023-05-29T08:17:07;10.27;;;5.00;;
8293;SDS011;4185;41.506;24.938;2023-05-29T08:19:33;6.77;;;5.10;;
8293;SDS011;4185;41.506;24.938;2023-05-29T08:22:00;9.93;;;4.70;;
8293;SDS011;4185;41.506;24.938;2023-05-29T08:24:27;5.60;;;4.83;;
8293;SDS011;4185;41.506;24.938;2023-05-29T08:26:54;6.40;;;4.77;;
8293;SDS011;4185;41.506;24.938;2023-05-29T08:29:21;6.23;;;5.13;;
8293;SDS011;4185;41.506;24.938;2023-05-29T08:31:48;6.27;;;4.90;;
8293;SDS011;4185;41.506;24.938;2023-05-29T08:34:16;11.07;;;5.00;;
8293;SDS011;4185;41.506;24.938;2023-05-29T08:36:43;6.00;;;5.30;;
8293;SDS011;4185;41.506;24.938;2023-05-29T08:39:10;6.93;;;4.93;;
8293;SDS011;4185;41.506;24.938;2023-05-29T08:41:39;7.60;;;4.47;;
8293;SDS011;4185;41.506;24.938;2023-05-29T08:44:18;5.20;;;3.90;;
8293;SDS011;4185;41.506;24.938;2023-05-29T08:46:49;5.13;;;4.50;;
8293;SDS011;4185;41.506;24.938;2023-05-29T08:49:22;5.20;;;4.70;;
8293;SDS011;4185;41.506;24.938;2023-05-29T08:51:52;4.67;;;4.23;;
8293;SDS011;4185;41.506;24.938;2023-05-29T08:54:29;5.87;;;4.37;;
8293;SDS011;4185;41.506;24.938;2023-05-29T08:56:58;5.70;;;4.20;;
8293;SDS011;4185;41.506;24.938;2023-05-29T08:59:26;5.50;;;4.20;;
8293;SDS011;4185;41.506;24.938;2023-05-29T09:01:56;7.07;;;4.57;;
8293;SDS011;4185;41.506;24.938;2023-05-29T09:04:24;5.20;;;3.90;;
8293;SDS011;4185;41.506;24.938;2023-05-29T09:06:51;5.30;;;4.20;;
8293;SDS011;4185;41.506;24.938;2023-05-29T09:09:20;4.87;;;3.87;;
8293;SDS011;4185;41.506;24.938;2023-05-29T09:11:48;4.80;;;3.77;;
8293;SDS011;4185;41.506;24.938;2023-05-29T09:17:01;5.20;;;4.10;;
8293;SDS011;4185;41.506;24.938;2023-05-29T09:19:30;4.97;;;4.10;;
8293;SDS011;4185;41.506;24.938;2023-05-29T09:22:00;6.43;;;4.10;;
8293;SDS011;4185;41.506;24.938;2023-05-29T09:24:29;4.63;;;4.17;;
8293;SDS011;4185;41.506;24.938;2023-05-29T09:26:56;4.33;;;3.70;;
8293;SDS011;4185;41.506;24.938;2023-05-29T09:29:24;4.80;;;3.90;;
8293;SDS011;4185;41.506;24.938;2023-05-29T09:31:51;4.60;;;3.97;;
8293;SDS011;4185;41.506;24.938;2023-05-29T09:34:18;9.10;;;4.00;;
8293;SDS011;4185;41.506;24.938;2023-05-29T09:36:46;5.90;;;4.33;;
8293;SDS011;4185;41.506;24.938;2023-05-29T09:39:13;4.90;;;4.10;;
8293;SDS011;4185;41.506;24.938;2023-05-29T09:41:41;6.73;;;4.33;;
8293;SDS011;4185;41.506;24.938;2023-05-29T09:44:10;5.13;;;3.87;;
8293;SDS011;4185;41.506;24.938;2023-05-29T09:46:39;5.10;;;3.70;;
8293;SDS011;4185;41.506;24.938;2023-05-29T09:49:08;4.70;;;4.07;;
8293;SDS011;4185;41.506;24.938;2023-05-29T09:51:37;4.63;;;3.83;;
8293;SDS011;4185;41.506;24.938;2023-05-29T09:54:15;5.03;;;3.87;;
8293;SDS011;4185;41.506;24.938;2023-05-29T09:56:43;4.83;;;3.50;;
8293;SDS011;4185;41.506;24.938;2023-05-29T09:59:10;5.90;;;4.13;;
8293;SDS011;4185;41.506;24.938;2023-05-29T10:01:38;5.17;;;3.70;;
8293;SDS011;4185;41.506;24.938;2023-05-29T10:04:07;5.70;;;3.97;;
8293;SDS011;4185;41.506;24.938;2023-05-29T10:06:35;4.27;;;3.87;;
8293;SDS011;4185;41.506;24.938;2023-05-29T10:09:04;5.37;;;3.60;;
8293;SDS011;4185;41.506;24.938;2023-05-29T10:11:36;5.93;;;5.03;;
8293;SDS011;4185;41.506;24.938;2023-05-29T10:14:04;9.43;;;4.40;;
8293;SDS011;4185;41.506;24.938;2023-05-29T10:16:33;6.73;;;4.30;;
8293;SDS011;4185;41.506;24.938;2023-05-29T10:19:05;7.07;;;3.50;;
8293;SDS011;4185;41.506;24.938;2023-05-29T10:21:36;3.63;;;3.27;;
8293;SDS011;4185;41.506;24.938;2023-05-29T10:24:06;5.47;;;4.13;;
8293;SDS011;4185;41.506;24.938;2023-05-29T10:26:34;5.40;;;3.47;;
8293;SDS011;4185;41.506;24.938;2023-05-29T10:29:05;6.77;;;4.23;;
8293;SDS011;4185;41.506;24.938;2023-05-29T10:31:40;5.97;;;3.60;;
8293;SDS011;4185;41.506;24.938;2023-05-29T10:34:18;4.30;;;3.43;;
8293;SDS011;4185;41.506;24.938;2023-05-29T10:36:58;5.27;;;3.60;;
8293;SDS011;4185;41.506;24.938;2023-05-29T10:39:31;7.17;;;4.20;;
8293;SDS011;4185;41.506;24.938;2023-05-29T10:41:58;5.00;;;3.80;;
8293;SDS011;4185;41.506;24.938;2023-05-29T10:44:39;5.90;;;4.07;;
8293;SDS011;4185;41.506;24.938;2023-05-29T10:47:06;4.33;;;3.87;;
8293;SDS011;4185;41.506;24.938;2023-05-29T10:49:35;6.13;;;3.53;;
8293;SDS011;4185;41.506;24.938;2023-05-29T10:52:03;4.80;;;3.93;;
8293;SDS011;4185;41.506;24.938;2023-05-29T10:54:39;7.27;;;3.47;;
8293;SDS011;4185;41.506;24.938;2023-05-29T10:57:17;6.10;;;4.53;;
8293;SDS011;4185;41.506;24.938;2023-05-29T10:59:45;5.43;;;4.27;;
8293;SDS011;4185;41.506;24.938;2023-05-29T11:02:17;5.60;;;3.73;;
8293;SDS011;4185;41.506;24.938;2023-05-29T11:04:44;6.13;;;4.07;;
8293;SDS011;4185;41.506;24.938;2023-05-29T11:07:33;7.97;;;3.80;;
8293;SDS011;4185;41.506;24.938;2023-05-29T11:10:10;5.90;;;4.07;;
8293;SDS011;4185;41.506;24.938;2023-05-29T11:12:41;4.97;;;3.67;;
8293;SDS011;4185;41.506;24.938;2023-05-29T11:15:24;6.63;;;3.80;;
8293;SDS011;4185;41.506;24.938;2023-05-29T11:17:51;4.70;;;3.60;;
8293;SDS011;4185;41.506;24.938;2023-05-29T11:20:27;5.17;;;3.60;;
8293;SDS011;4185;41.506;24.938;2023-05-29T11:23:03;4.30;;;3.73;;
8293;SDS011;4185;41.506;24.938;2023-05-29T11:25:34;6.23;;;3.73;;
8293;SDS011;4185;41.506;24.938;2023-05-29T11:28:02;5.27;;;4.73;;
8293;SDS011;4185;41.506;24.938;2023-05-29T11:30:41;7.00;;;4.30;;
8293;SDS011;4185;41.506;24.938;2023-05-29T11:33:15;5.63;;;3.90;;
8293;SDS011;4185;41.506;24.938;2023-05-29T11:35:50;6.67;;;4.10;;
8293;SDS011;4185;41.506;24.938;2023-05-29T11:38:22;7.70;;;4.27;;
8293;SDS011;4185;41.506;24.938;2023-05-29T11:40:49;6.80;;;3.90;;
8293;SDS011;4185;41.506;24.938;2023-05-29T11:43:16;5.57;;;4.23;;
8293;SDS011;4185;41.506;24.938;2023-05-29T11:45:44;5.70;;;4.60;;
8293;SDS011;4185;41.506;24.938;2023-05-29T11:48:11;6.93;;;4.10;;
8293;SDS011;4185;41.506;24.938;2023-05-29T11:50:38;5.80;;;4.00;;
8293;SDS011;4185;41.506;24.938;2023-05-29T11:53:05;5.53;;;4.23;;
8293;SDS011;4185;41.506;24.938;2023-05-29T11:55:33;7.03;;;4.50;;
8293;SDS011;4185;41.506;24.938;2023-05-29T11:58:00;5.97;;;4.93;;
8293;SDS011;4185;41.506;24.938;2023-05-29T12:00:30;7.10;;;4.50;;
8293;SDS011;4185;41.506;24.938;2023-05-29T12:03:00;7.43;;;4.57;;
8293;SDS011;4185;41.506;24.938;2023-05-29T12:05:29;6.60;;;5.10;;
8293;SDS011;4185;41.506;24.938;2023-05-29T12:07:57;5.50;;;4.63;;
8293;SDS011;4185;41.506;24.938;2023-05-29T12:10:26;5.63;;;4.40;;
8293;SDS011;4185;41.506;24.938;2023-05-29T12:12:54;10.43;;;6.33;;
8293;SDS011;4185;41.506;24.938;2023-05-29T12:15:22;9.63;;;5.47;;
8293;SDS011;4185;41.506;24.938;2023-05-29T12:17:50;7.37;;;5.57;;
8293;SDS011;4185;41.506;24.938;2023-05-29T12:20:19;7.53;;;5.57;;
8293;SDS011;4185;41.506;24.938;2023-05-29T12:22:51;7.80;;;5.30;;
8293;SDS011;4185;41.506;24.938;2023-05-29T12:25:19;9.43;;;5.57;;
8293;SDS011;4185;41.506;24.938;2023-05-29T12:27:47;9.23;;;4.70;;
8293;SDS011;4185;41.506;24.938;2023-05-29T12:30:14;8.07;;;4.77;;
8293;SDS011;4185;41.506;24.938;2023-05-29T12:32:49;6.10;;;4.40;;
8293;SDS011;4185;41.506;24.938;2023-05-29T12:35:17;5.87;;;4.87;;
8293;SDS011;4185;41.506;24.938;2023-05-29T12:37:47;6.27;;;4.33;;
8293;SDS011;4185;41.506;24.938;2023-05-29T12:40:19;7.57;;;4.47;;
8293;SDS011;4185;41.506;24.938;2023-05-29T12:42:47;5.23;;;3.87;;
8293;SDS011;4185;41.506;24.938;2023-05-29T12:45:14;4.20;;;3.50;;
8293;SDS011;4185;41.506;24.938;2023-05-29T12:47:44;4.07;;;2.97;;
8293;SDS011;4185;41.506;24.938;2023-05-29T12:50:20;3.03;;;2.70;;
8293;SDS011;4185;41.506;24.938;2023-05-29T12:52:55;6.53;;;3.33;;
8293;SDS011;4185;41.506;24.938;2023-05-29T12:55:23;5.37;;;2.90;;
8293;SDS011;4185;41.506;24.938;2023-05-29T12:57:50;4.63;;;3.10;;
8293;SDS011;4185;41.506;24.938;2023-05-29T13:00:18;6.30;;;3.40;;
8293;SDS011;4185;41.506;24.938;2023-05-29T13:02:46;3.80;;;2.90;;
8293;SDS011;4185;41.506;24.938;2023-05-29T13:05:13;2.97;;;2.27;;
8293;SDS011;4185;41.506;24.938;2023-05-29T13:07:42;5.07;;;2.70;;
8293;SDS011;4185;41.506;24.938;2023-05-29T13:10:09;6.73;;;3.30;;
8293;SDS011;4185;41.506;24.938;2023-05-29T13:12:36;5.50;;;3.20;;
8293;SDS011;4185;41.506;24.938;2023-05-29T13:15:03;5.07;;;3.27;;
8293;SDS011;4185;41.506;24.938;2023-05-29T13:17:31;3.97;;;2.53;;
8293;SDS011;4185;41.506;24.938;2023-05-29T13:19:58;4.97;;;3.03;;
8293;SDS011;4185;41.506;24.938;2023-05-29T13:22:24;2.70;;;2.20;;
8293;SDS011;4185;41.506;24.938;2023-05-29T13:24:57;2.67;;;2.23;;
8293;SDS011;4185;41.506;24.938;2023-05-29T13:27:24;3.03;;;2.23;;
8293;SDS011;4185;41.506;24.938;2023-05-29T13:29:51;4.23;;;2.10;;
8293;SDS011;4185;41.506;24.938;2023-05-29T13:32:19;4.40;;;2.13;;
8293;SDS011;4185;41.506;24.938;2023-05-29T13:34:45;2.87;;;2.07;;
8293;SDS011;4185;41.506;24.938;2023-05-29T13:37:12;2.43;;;2.00;;
8293;SDS011;4185;41.506;24.938;2023-05-29T13:39:39;4.13;;;2.63;;
8293;SDS011;4185;41.506;24.938;2023-05-29T13:42:08;2.80;;;2.10;;
8293;SDS011;4185;41.506;24.938;2023-05-29T13:44:35;2.30;;;1.90;;
8293;SDS011;4185;41.506;24.938;2023-05-29T13:47:03;2.43;;;2.23;;
8293;SDS011;4185;41.506;24.938;2023-05-29T13:49:31;2.97;;;2.00;;
8293;SDS011;4185;41.506;24.938;2023-05-29T13:51:57;5.37;;;2.20;;
8293;SDS011;4185;41.506;24.938;2023-05-29T13:54:24;2.53;;;1.97;;
8293;SDS011;4185;41.506;24.938;2023-05-29T13:56:52;2.43;;;1.83;;
8293;SDS011;4185;41.506;24.938;2023-05-29T13:59:20;2.90;;;2.13;;
8293;SDS011;4185;41.506;24.938;2023-05-29T14:01:47;3.00;;;2.23;;
8293;SDS011;4185;41.506;24.938;2023-05-29T14:04:14;2.37;;;1.83;;
8293;SDS011;4185;41.506;24.938;2023-05-29T14:06:40;2.30;;;1.70;;
8293;SDS011;4185;41.506;24.938;2023-05-29T14:09:07;2.30;;;1.83;;
8293;SDS011;4185;41.506;24.938;2023-05-29T14:11:35;1.97;;;1.60;;
8293;SDS011;4185;41.506;24.938;2023-05-29T14:14:02;3.37;;;1.67;;
8293;SDS011;4185;41.506;24.938;2023-05-29T14:16:30;1.60;;;1.50;;
8293;SDS011;4185;41.506;24.938;2023-05-29T14:18:57;1.80;;;1.70;;
8293;SDS011;4185;41.506;24.938;2023-05-29T14:21:24;3.33;;;1.73;;
8293;SDS011;4185;41.506;24.938;2023-05-29T14:23:51;3.07;;;1.77;;
8293;SDS011;4185;41.506;24.938;2023-05-29T14:26:18;3.43;;;2.00;;
8293;SDS011;4185;41.506;24.938;2023-05-29T14:28:45;2.67;;;1.80;;
8293;SDS011;4185;41.506;24.938;2023-05-29T14:31:12;3.43;;;1.80;;
8293;SDS011;4185;41.506;24.938;2023-05-29T14:33:40;3.53;;;1.80;;
8293;SDS011;4185;41.506;24.938;2023-05-29T14:36:07;2.47;;;1.87;;
8293;SDS011;4185;41.506;24.938;2023-05-29T14:38:34;3.20;;;1.70;;
8293;SDS011;4185;41.506;24.938;2023-05-29T14:41:01;2.10;;;1.70;;
8293;SDS011;4185;41.506;24.938;2023-05-29T14:43:28;4.03;;;2.20;;
8293;SDS011;4185;41.506;24.938;2023-05-29T14:45:55;3.13;;;2.17;;
8293;SDS011;4185;41.506;24.938;2023-05-29T14:48:22;2.50;;;1.90;;
8293;SDS011;4185;41.506;24.938;2023-05-29T14:50:50;3.07;;;1.93;;
8293;SDS011;4185;41.506;24.938;2023-05-29T14:53:16;2.97;;;2.00;;
8293;SDS011;4185;41.506;24.938;2023-05-29T14:55:45;3.10;;;2.10;;
8293;SDS011;4185;41.506;24.938;2023-05-29T14:58:12;1.97;;;1.70;;
8293;SDS011;4185;41.506;24.938;2023-05-29T15:00:39;2.40;;;1.83;;
8293;SDS011;4185;41.506;24.938;2023-05-29T15:03:06;2.90;;;2.60;;
8293;SDS011;4185;41.506;24.938;2023-05-29T15:05:33;5.47;;;2.47;;
8293;SDS011;4185;41.506;24.938;2023-05-29T15:08:01;2.60;;;2.40;;